Terminal Aerodrome Forecast
Issued by NWS

Home | Current Version | Previous Version | Graphics & Text | Print | Product List | Glossary On
Versions: 1 2 3 4 5 6 7 8 9 10 11 12 13 14 15 16 17 18 19 20 21 22 23
000
FTUS43 KMPX 260600 AAA
TAFRWF
TAF AMD
KRWF 260641Z 2607/2706 36011KT 6SM BR OVC007
     FM260900 36011KT 4SM BR OVC005
     FM261600 35011KT P6SM OVC012
     FM270000 34009KT 4SM -SN BR OVC008
      TEMPO 2702/2706 2SM -SN BR=

USA.gov is the U.S. government's official web portal to all federal, state and local government web resources and services.